Time;durP1;ratioP1;P1;durP2;ratioP2;P2;SDS_P1;SDS_P2;PMS_P1;PMS_P2;Temp;Humidity;BMP_temperature;BMP_pressure;BME280_temperature;BME280_humidity;BME280_pressure;Samples;Min_cycle;Max_cycle;Signal;HPM_P1;HPM_P2
2022/01/13 00:01:57;;;;;;;108.38;40.40;;;-3.90;99.90;;;;;;4939477;29;20032;-87
2022/01/13 00:04:23;;;;;;;107.55;40.75;;;-3.90;99.90;;;;;;4956103;29;20042;-87
2022/01/13 00:07:01;;;;;;;103.85;41.40;;;-3.80;99.90;;;;;;4955190;28;20027;-87
2022/01/13 00:09:27;;;;;;;114.10;42.25;;;-3.90;99.90;;;;;;4939838;29;20039;-87
2022/01/13 00:11:55;;;;;;;109.45;43.13;;;-4.00;99.90;;;;;;4955107;29;20938;-86
2022/01/13 00:14:26;;;;;;;123.60;46.83;;;-4.00;99.90;;;;;;4954463;29;20028;-86
2022/01/13 00:19:48;;;;;;;142.40;49.58;;;-3.70;99.90;;;;;;4955378;29;20036;-87
2022/01/13 00:24:49;;;;;;;135.15;47.45;;;-3.80;99.90;;;;;;4955677;29;20034;-87
2022/01/13 00:27:16;;;;;;;129.80;46.80;;;-3.90;99.90;;;;;;4941940;29;20041;-87
2022/01/13 00:29:44;;;;;;;131.77;47.35;;;-4.00;99.90;;;;;;4942133;29;20459;-86
2022/01/13 00:32:21;;;;;;;132.20;48.33;;;-4.00;99.90;;;;;;4955746;29;20483;-87
2022/01/13 00:34:46;;;;;;;142.23;48.10;;;-4.00;99.90;;;;;;4955376;29;20082;-85
2022/01/13 00:37:12;;;;;;;137.13;49.33;;;-3.90;99.90;;;;;;4956118;29;20032;-87
2022/01/13 00:39:38;;;;;;;135.32;50.58;;;-3.90;99.90;;;;;;4955484;28;20128;-87
2022/01/13 00:42:04;;;;;;;134.85;49.67;;;-3.90;99.90;;;;;;4954650;29;20035;-87
2022/01/13 00:44:35;;;;;;;144.40;49.72;;;-3.90;99.90;;;;;;4937707;29;20495;-87
2022/01/13 00:47:01;;;;;;;152.13;49.88;;;-3.80;99.90;;;;;;4938098;29;20036;-87
2022/01/13 00:49:28;;;;;;;143.70;48.83;;;-3.80;99.90;;;;;;4954461;29;20472;-87
2022/01/13 00:51:54;;;;;;;131.60;48.72;;;-3.90;99.90;;;;;;4938873;29;20498;-88
2022/01/13 00:54:20;;;;;;;133.48;48.00;;;-4.00;99.90;;;;;;4938448;29;20038;-87
2022/01/13 00:56:46;;;;;;;152.60;51.38;;;-4.10;99.90;;;;;;4954177;29;20035;-87
2022/01/13 00:59:13;;;;;;;144.32;51.22;;;-4.00;99.90;;;;;;4954026;28;20062;-87
2022/01/13 01:01:50;;;;;;;155.07;54.60;;;-4.00;99.90;;;;;;4938545;29;20035;-86
2022/01/13 01:04:17;;;;;;;148.95;55.50;;;-4.00;99.90;;;;;;4940877;29;20032;-87
2022/01/13 01:06:44;;;;;;;149.77;55.28;;;-4.10;99.90;;;;;;4942337;29;20052;-86
2022/01/13 01:09:14;;;;;;;152.50;53.20;;;-4.10;99.90;;;;;;4958981;29;20513;-86
2022/01/13 01:11:42;;;;;;;168.10;53.67;;;-4.10;99.90;;;;;;4942148;29;20031;-86
2022/01/13 01:14:08;;;;;;;146.50;52.00;;;-4.10;99.90;;;;;;4941607;29;20486;-86
2022/01/13 01:16:36;;;;;;;147.73;51.97;;;-4.20;99.90;;;;;;4957613;29;20019;-87
2022/01/13 01:19:07;;;;;;;146.88;52.55;;;-4.20;99.90;;;;;;4941694;29;20065;-87
2022/01/13 01:22:13;;;;;;;137.35;51.60;;;-4.20;99.90;;;;;;4958071;29;20027;-86
2022/01/13 01:24:57;;;;;;;157.38;50.13;;;-4.20;99.90;;;;;;4958284;28;20082;-86
2022/01/13 01:27:22;;;;;;;137.55;46.63;;;-4.30;99.90;;;;;;4940911;29;20039;-86
2022/01/13 01:29:56;;;;;;;155.10;49.85;;;-4.30;99.90;;;;;;4957246;29;20031;-87
2022/01/13 01:32:22;;;;;;;143.70;48.97;;;-4.30;99.90;;;;;;4941380;29;20050;-86
2022/01/13 01:34:55;;;;;;;134.50;48.08;;;-4.30;99.90;;;;;;4957652;29;20070;-86
2022/01/13 01:37:26;;;;;;;132.25;47.20;;;-4.20;99.90;;;;;;4941192;29;20102;-87
2022/01/13 01:39:54;;;;;;;126.72;45.03;;;-4.30;99.90;;;;;;4941245;29;20032;-86
2022/01/13 01:42:21;;;;;;;132.50;44.85;;;-4.20;99.90;;;;;;4941275;29;20039;-86
2022/01/13 01:44:49;;;;;;;137.45;45.80;;;-4.30;99.90;;;;;;4941162;29;20035;-86
2022/01/13 01:47:17;;;;;;;123.65;44.13;;;-4.30;99.90;;;;;;4941165;29;20042;-87
2022/01/13 01:49:46;;;;;;;130.60;45.25;;;-4.40;99.90;;;;;;4941258;29;20035;-86
2022/01/13 01:52:14;;;;;;;131.93;43.35;;;-4.40;99.90;;;;;;4957953;28;20031;-86
2022/01/13 01:54:39;;;;;;;130.70;43.67;;;-4.50;99.90;;;;;;4941192;29;20517;-87
2022/01/13 01:57:07;;;;;;;129.10;42.88;;;-4.50;99.90;;;;;;4941268;29;20032;-87
2022/01/13 01:59:36;;;;;;;114.57;42.55;;;-4.50;99.90;;;;;;4958329;29;20031;-87
2022/01/13 02:02:41;;;;;;;119.90;45.03;;;-4.50;99.90;;;;;;4959217;29;20645;-85
2022/01/13 02:05:07;;;;;;;133.68;43.67;;;-4.50;99.90;;;;;;4941375;29;20134;-86
2022/01/13 02:07:33;;;;;;;122.53;43.90;;;-4.50;99.90;;;;;;4957128;29;20035;-84
2022/01/13 02:09:59;;;;;;;120.88;43.42;;;-4.50;99.90;;;;;;4957207;29;20043;-87
2022/01/13 02:13:02;;;;;;;118.03;46.08;;;-4.50;99.90;;;;;;4941033;29;20054;-86
2022/01/13 02:15:31;;;;;;;128.63;43.92;;;-4.50;99.90;;;;;;4940598;29;20082;-86
2022/01/13 02:17:59;;;;;;;125.65;43.58;;;-4.50;99.90;;;;;;4941107;29;20082;-86
2022/01/13 02:20:43;;;;;;;120.75;40.92;;;-4.50;99.90;;;;;;4925683;29;20427;-87
2022/01/13 02:23:09;;;;;;;120.95;41.40;;;-4.40;99.90;;;;;;4940771;29;20054;-87
2022/01/13 02:25:34;;;;;;;119.43;44.78;;;-4.50;99.90;;;;;;4940803;29;20031;-86
2022/01/13 02:28:00;;;;;;;120.50;44.55;;;-4.60;99.90;;;;;;4940477;29;20038;-86
2022/01/13 02:30:26;;;;;;;123.22;45.08;;;-4.60;99.90;;;;;;4940552;29;20035;-86
2022/01/13 02:32:52;;;;;;;131.27;45.75;;;-4.50;99.90;;;;;;4956012;29;20130;-87
2022/01/13 02:35:17;;;;;;;154.60;50.78;;;-4.50;99.90;;;;;;4956071;29;20035;-87
2022/01/13 02:37:43;;;;;;;144.77;48.20;;;-4.30;99.90;;;;;;4955577;28;20042;-87
2022/01/13 02:40:09;;;;;;;134.13;45.92;;;-4.30;99.90;;;;;;4956318;29;20030;-86
2022/01/13 02:42:35;;;;;;;138.02;47.88;;;-4.40;99.90;;;;;;4957307;29;20114;-86
2022/01/13 02:45:02;;;;;;;131.00;46.63;;;-4.40;99.90;;;;;;4955509;29;20063;-87
2022/01/13 02:50:28;;;;;;;147.65;50.92;;;-4.40;99.90;;;;;;4935099;29;20046;-87
2022/01/13 02:52:54;;;;;;;151.20;52.78;;;-4.40;99.90;;;;;;4955691;29;20141;-87
2022/01/13 02:55:22;;;;;;;145.90;50.35;;;-4.30;99.90;;;;;;4955255;29;20031;-86
2022/01/13 02:57:48;;;;;;;131.68;45.47;;;-4.20;99.90;;;;;;4956835;29;20039;-85
2022/01/13 03:00:16;;;;;;;137.70;48.50;;;-4.20;99.90;;;;;;4955738;28;20814;-87
2022/01/13 03:02:45;;;;;;;129.70;44.85;;;-4.30;99.90;;;;;;4956570;29;20110;-86
2022/01/13 03:05:13;;;;;;;138.18;48.03;;;-4.40;99.90;;;;;;4939014;29;20034;-87
2022/01/13 03:08:16;;;;;;;142.18;48.20;;;-4.50;99.90;;;;;;4955292;29;20479;-86
2022/01/13 03:10:42;;;;;;;137.00;43.38;;;-4.40;99.90;;;;;;4939271;29;20035;-86
2022/01/13 03:13:08;;;;;;;133.40;45.03;;;-4.40;99.90;;;;;;4939375;29;20031;-86
2022/01/13 03:15:34;;;;;;;134.60;43.38;;;-4.40;99.90;;;;;;4955495;29;20042;-86
2022/01/13 03:18:00;;;;;;;121.65;43.92;;;-4.40;99.90;;;;;;4939404;29;20471;-86
2022/01/13 03:20:26;;;;;;;129.77;43.75;;;-4.50;99.90;;;;;;4955371;29;20039;-86
2022/01/13 03:22:52;;;;;;;127.97;42.42;;;-4.50;99.90;;;;;;4939618;29;20038;-86
2022/01/13 03:25:22;;;;;;;119.60;42.00;;;-4.60;99.90;;;;;;4939015;29;20031;-86
2022/01/13 03:27:56;;;;;;;132.85;45.00;;;-4.60;99.90;;;;;;4955130;28;20039;-86
2022/01/13 03:30:22;;;;;;;138.75;46.70;;;-4.50;99.90;;;;;;4939475;29;20031;-86
2022/01/13 03:32:48;;;;;;;133.20;47.65;;;-4.60;99.90;;;;;;4955353;29;20049;-86
2022/01/13 03:35:14;;;;;;;146.48;49.40;;;-4.60;99.90;;;;;;4939012;29;20035;-86
2022/01/13 03:37:40;;;;;;;128.10;45.35;;;-4.50;99.90;;;;;;4939279;29;20503;-86
2022/01/13 03:40:06;;;;;;;127.38;44.22;;;-4.60;99.90;;;;;;4955352;29;20076;-86
2022/01/13 03:42:32;;;;;;;125.68;43.83;;;-4.60;99.90;;;;;;4954903;29;20027;-86
2022/01/13 03:45:23;;;;;;;131.85;46.70;;;-4.60;99.90;;;;;;4954996;29;20042;-86
2022/01/13 03:47:48;;;;;;;137.20;48.00;;;-4.60;99.90;;;;;;4955209;29;20039;-87
2022/01/13 03:50:14;;;;;;;132.65;47.28;;;-4.60;99.90;;;;;;4954899;29;20181;-86
2022/01/13 03:53:01;;;;;;;134.30;49.08;;;-4.70;99.90;;;;;;4954840;29;20469;-86
2022/01/13 03:56:06;;;;;;;146.65;51.17;;;-4.70;99.90;;;;;;4939083;29;20043;-86
2022/01/13 03:58:59;;;;;;;135.18;47.17;;;-4.60;99.90;;;;;;4938780;29;20043;-86
2022/01/13 04:01:47;;;;;;;154.95;52.45;;;-4.70;99.90;;;;;;4938876;29;20042;-86
2022/01/13 04:04:13;;;;;;;154.60;51.90;;;-4.50;99.90;;;;;;4954674;29;20387;-86
2022/01/13 04:06:45;;;;;;;146.57;52.58;;;-4.50;99.90;;;;;;4939090;29;20031;-86
2022/01/13 04:09:32;;;;;;;144.90;52.33;;;-4.60;99.90;;;;;;4955305;29;20039;-86
2022/01/13 04:12:00;;;;;;;141.88;49.13;;;-4.60;99.90;;;;;;4954704;29;20038;-86
2022/01/13 04:14:36;;;;;;;136.35;46.53;;;-4.60;99.90;;;;;;4954413;29;20043;-87
2022/01/13 04:17:02;;;;;;;131.43;43.30;;;-4.60;99.90;;;;;;4954761;29;20042;-85
2022/01/13 04:19:28;;;;;;;116.97;42.42;;;-4.50;99.90;;;;;;4955095;29;20043;-86
2022/01/13 04:21:54;;;;;;;118.10;41.92;;;-4.60;99.90;;;;;;4955191;28;20082;-86
2022/01/13 04:24:20;;;;;;;111.45;42.08;;;-4.70;99.90;;;;;;4955458;28;20086;-87
2022/01/13 04:26:45;;;;;;;128.23;42.00;;;-4.70;99.90;;;;;;4954262;29;20028;-86
2022/01/13 04:31:39;;;;;;;113.07;42.33;;;-4.70;99.90;;;;;;4955719;29;20032;-86
2022/01/13 04:34:05;;;;;;;108.88;39.20;;;-4.70;99.90;;;;;;4938459;29;20031;-86
2022/01/13 04:36:30;;;;;;;114.47;39.53;;;-4.70;99.90;;;;;;4954846;29;20035;-86
2022/01/13 04:38:56;;;;;;;110.72;42.30;;;-4.60;99.90;;;;;;4939942;29;20035;-86
2022/01/13 04:41:36;;;;;;;113.80;41.17;;;-4.60;99.90;;;;;;4958434;29;20375;-86
2022/01/13 04:44:11;;;;;;;125.70;42.75;;;-4.70;99.90;;;;;;4957813;29;20031;-86
2022/01/13 04:46:37;;;;;;;119.78;45.33;;;-4.60;99.90;;;;;;4942269;29;20050;-86
2022/01/13 04:49:04;;;;;;;118.63;43.45;;;-4.50;99.90;;;;;;4942737;29;20506;-86
2022/01/13 04:51:30;;;;;;;122.70;44.38;;;-4.50;99.90;;;;;;4942159;29;20045;-86
2022/01/13 04:53:56;;;;;;;121.00;43.55;;;-4.50;99.90;;;;;;4958021;29;20086;-86
2022/01/13 04:56:31;;;;;;;130.98;42.63;;;-4.50;99.90;;;;;;4942155;29;20015;-85
2022/01/13 04:58:58;;;;;;;136.00;43.95;;;-4.50;99.90;;;;;;4958060;29;20035;-85
2022/01/13 05:01:24;;;;;;;129.52;43.72;;;-4.50;99.90;;;;;;4941845;29;20035;-86
2022/01/13 05:03:59;;;;;;;129.18;43.33;;;-4.50;99.90;;;;;;4957524;29;20063;-86
2022/01/13 05:06:25;;;;;;;115.03;42.70;;;-4.60;99.90;;;;;;4941830;29;20062;-86
2022/01/13 05:08:51;;;;;;;115.45;42.22;;;-4.60;99.90;;;;;;4957182;29;20039;-85
2022/01/13 05:11:18;;;;;;;121.18;43.28;;;-4.60;99.90;;;;;;4941233;29;20035;-86
2022/01/13 05:13:44;;;;;;;109.05;40.42;;;-4.60;99.90;;;;;;4957830;29;20031;-85
2022/01/13 05:16:19;;;;;;;124.95;43.78;;;-4.60;99.90;;;;;;4957694;29;20027;-86
2022/01/13 05:18:55;;;;;;;114.50;42.95;;;-4.70;99.90;;;;;;4957473;29;20054;-85
2022/01/13 05:21:27;;;;;;;120.65;42.60;;;-4.60;99.90;;;;;;4941449;29;20114;-86
2022/01/13 05:23:53;;;;;;;116.80;39.70;;;-4.60;99.90;;;;;;4941281;29;20031;-85
2022/01/13 05:26:21;;;;;;;134.93;46.42;;;-4.70;99.90;;;;;;4941589;29;20170;-86
2022/01/13 05:28:47;;;;;;;134.55;48.20;;;-4.70;99.90;;;;;;4941644;29;20039;-86
2022/01/13 05:31:13;;;;;;;131.95;47.63;;;-4.70;99.90;;;;;;4941576;29;20031;-86
2022/01/13 05:33:38;;;;;;;123.30;44.50;;;-4.70;99.90;;;;;;4940520;29;20050;-85
2022/01/13 05:36:05;;;;;;;119.65;44.22;;;-4.60;99.90;;;;;;4957248;29;20038;-85
2022/01/13 05:38:31;;;;;;;132.18;43.35;;;-4.50;99.90;;;;;;4941271;29;20038;-85
2022/01/13 05:40:58;;;;;;;124.80;42.45;;;-4.50;99.90;;;;;;4957156;29;20039;-86
2022/01/13 05:43:25;;;;;;;134.07;40.38;;;-4.30;99.90;;;;;;4957124;29;20388;-85
2022/01/13 05:45:51;;;;;;;174.68;42.15;;;-4.10;99.90;;;;;;4940997;29;20442;-86
2022/01/13 05:48:17;;;;;;;170.57;41.70;;;-4.00;99.90;;;;;;4957070;29;20039;-85
2022/01/13 05:50:42;;;;;;;142.13;39.08;;;-3.80;99.90;;;;;;4956214;28;20027;-86
2022/01/13 05:53:08;;;;;;;215.05;40.15;;;-3.70;99.90;;;;;;4956571;29;20035;-86
2022/01/13 05:55:34;;;;;;;184.10;40.58;;;-3.70;99.90;;;;;;4956803;29;20043;-86
2022/01/13 05:58:00;;;;;;;136.68;36.67;;;-3.70;99.90;;;;;;4940993;29;20039;-86
2022/01/13 06:00:26;;;;;;;159.27;38.35;;;-3.70;99.90;;;;;;4956478;29;20487;-85
2022/01/13 06:02:53;;;;;;;116.90;36.10;;;-3.80;99.90;;;;;;4940655;29;20043;-85
2022/01/13 06:05:19;;;;;;;122.10;35.20;;;-3.80;99.90;;;;;;4957230;29;20086;-85
2022/01/13 06:07:46;;;;;;;113.70;37.30;;;-3.90;99.90;;;;;;4940337;29;20042;-84
2022/01/13 06:10:18;;;;;;;134.05;36.35;;;-4.00;99.90;;;;;;4956413;29;20439;-84
2022/01/13 06:12:44;;;;;;;116.07;35.17;;;-4.00;99.90;;;;;;4940441;29;20031;-84
2022/01/13 06:15:12;;;;;;;123.20;36.30;;;-4.10;99.90;;;;;;4940511;29;20039;-84
2022/01/13 06:17:40;;;;;;;108.72;35.35;;;-4.10;99.90;;;;;;4940356;29;20043;-84
2022/01/13 06:20:07;;;;;;;114.80;35.00;;;-4.20;99.90;;;;;;4957579;29;20038;-84
2022/01/13 06:22:33;;;;;;;170.95;39.47;;;-4.30;99.90;;;;;;4940083;29;20027;-84
2022/01/13 06:24:59;;;;;;;109.20;35.20;;;-4.20;99.90;;;;;;4956097;29;20554;-84
2022/01/13 06:27:25;;;;;;;129.30;35.13;;;-4.20;99.90;;;;;;4955764;29;20104;-84
2022/01/13 06:29:51;;;;;;;139.25;40.30;;;-4.20;99.90;;;;;;4956442;29;20069;-85
2022/01/13 06:32:18;;;;;;;140.80;45.83;;;-4.40;99.90;;;;;;4939906;29;20042;-84
2022/01/13 06:34:44;;;;;;;122.10;39.55;;;-4.40;99.90;;;;;;4940031;29;20038;-85
2022/01/13 06:37:10;;;;;;;134.73;42.72;;;-4.60;99.90;;;;;;4956312;29;20031;-84
2022/01/13 06:39:35;;;;;;;117.90;41.20;;;-4.70;99.90;;;;;;4956135;29;20027;-84
2022/01/13 06:42:02;;;;;;;117.53;40.42;;;-4.80;99.90;;;;;;4940074;29;20043;-84
2022/01/13 06:44:27;;;;;;;114.00;40.10;;;-4.70;99.90;;;;;;4956927;29;20101;-84
2022/01/13 06:46:53;;;;;;;109.25;34.50;;;-4.70;99.90;;;;;;4955640;28;20051;-84
2022/01/13 06:49:19;;;;;;;108.00;34.72;;;-4.70;99.90;;;;;;4939651;29;20035;-83
2022/01/13 06:51:45;;;;;;;105.55;33.15;;;-4.60;99.90;;;;;;4955476;29;20164;-84
2022/01/13 06:54:10;;;;;;;100.53;34.00;;;-4.70;99.90;;;;;;4939222;29;20443;-84
2022/01/13 06:56:36;;;;;;;110.15;36.70;;;-4.70;99.90;;;;;;4955913;29;20027;-85
2022/01/13 06:59:08;;;;;;;119.00;41.42;;;-4.80;99.90;;;;;;4955896;29;20051;-85
2022/01/13 07:01:34;;;;;;;141.48;48.90;;;-4.80;99.90;;;;;;4955481;28;20065;-85
2022/01/13 07:03:59;;;;;;;144.50;52.63;;;-4.90;99.90;;;;;;4955513;29;20399;-85
2022/01/13 07:06:25;;;;;;;150.00;50.90;;;-5.00;99.90;;;;;;4939700;29;20051;-85
2022/01/13 07:08:51;;;;;;;147.27;50.97;;;-4.90;99.90;;;;;;4955533;29;20031;-84
2022/01/13 07:11:16;;;;;;;143.30;49.35;;;-4.90;99.90;;;;;;4955520;29;20039;-85
2022/01/13 07:13:42;;;;;;;157.68;50.83;;;-4.90;99.90;;;;;;4939368;29;20057;-85
2022/01/13 07:16:08;;;;;;;147.20;51.60;;;-4.80;99.90;;;;;;4939417;29;20031;-85
2022/01/13 07:18:38;;;;;;;142.27;49.05;;;-4.80;99.90;;;;;;4954532;29;20083;-83
2022/01/13 07:21:06;;;;;;;133.13;46.45;;;-4.90;99.90;;;;;;4937999;29;20479;-82
2022/01/13 07:23:32;;;;;;;139.80;47.35;;;-4.90;99.90;;;;;;4938397;29;20457;-82
2022/01/13 07:25:57;;;;;;;125.38;45.78;;;-4.90;99.90;;;;;;4938227;29;20037;-83
2022/01/13 07:28:23;;;;;;;143.07;45.97;;;-4.80;99.90;;;;;;4954241;29;20126;-83
2022/01/13 07:30:49;;;;;;;121.55;45.20;;;-4.80;99.90;;;;;;4938106;29;20039;-82
2022/01/13 07:33:15;;;;;;;120.97;41.53;;;-4.80;99.90;;;;;;4937957;29;20662;-83
2022/01/13 07:35:40;;;;;;;114.50;38.85;;;-4.80;99.90;;;;;;4954219;29;20035;-82
2022/01/13 07:38:06;;;;;;;109.15;39.33;;;-4.70;99.90;;;;;;4937922;29;20046;-82
2022/01/13 07:40:32;;;;;;;114.88;39.03;;;-4.60;99.90;;;;;;4954383;29;20027;-83
2022/01/13 07:42:58;;;;;;;119.28;39.75;;;-4.60;99.90;;;;;;4938898;29;20041;-85
2022/01/13 07:45:23;;;;;;;120.45;43.13;;;-4.60;99.90;;;;;;4938905;29;20031;-86
2022/01/13 07:47:49;;;;;;;124.35;42.72;;;-4.50;99.90;;;;;;4939447;29;20069;-86
2022/01/13 07:50:15;;;;;;;109.93;41.55;;;-4.50;99.90;;;;;;4955421;29;20133;-85
2022/01/13 07:52:42;;;;;;;117.55;42.40;;;-4.60;99.90;;;;;;4939367;29;20513;-85
2022/01/13 07:55:08;;;;;;;109.07;35.85;;;-4.60;99.90;;;;;;4955540;29;20118;-85
2022/01/13 07:57:34;;;;;;;104.72;36.33;;;-4.50;99.90;;;;;;4955571;29;20031;-85
2022/01/13 07:59:59;;;;;;;105.47;36.33;;;-4.40;99.90;;;;;;4940165;29;20124;-86
2022/01/13 08:02:25;;;;;;;111.22;36.38;;;-4.40;99.90;;;;;;4955546;28;20119;-86
2022/01/13 08:04:51;;;;;;;114.80;37.00;;;-4.40;99.90;;;;;;4955228;29;20028;-86
2022/01/13 08:07:17;;;;;;;114.20;40.55;;;-4.40;99.90;;;;;;4946389;29;20059;-85
2022/01/13 08:09:42;;;;;;;120.43;44.17;;;-4.40;99.90;;;;;;4956641;29;20074;-86
2022/01/13 08:12:09;;;;;;;148.52;51.63;;;-4.30;99.90;;;;;;4955429;28;20434;-86
2022/01/13 08:14:34;;;;;;;129.65;47.45;;;-4.20;99.90;;;;;;4942172;29;20031;-86
2022/01/13 08:17:02;;;;;;;125.50;47.60;;;-4.20;99.90;;;;;;4943368;29;20042;-86
2022/01/13 08:19:47;;;;;;;151.90;54.80;;;-4.10;99.90;;;;;;4958591;29;20081;-86
2022/01/13 08:22:13;;;;;;;157.77;55.28;;;-4.00;99.90;;;;;;4942288;29;20025;-86
2022/01/13 08:24:39;;;;;;;141.73;52.67;;;-3.80;99.90;;;;;;4942231;29;20035;-86
2022/01/13 08:27:06;;;;;;;148.80;54.30;;;-3.80;99.90;;;;;;4941970;29;20031;-85
2022/01/13 08:29:47;;;;;;;167.20;59.78;;;-3.70;99.90;;;;;;4942382;29;20031;-85
2022/01/13 08:32:14;;;;;;;;;;;-3.50;99.90;;;;;;4942255;29;20038;-86
2022/01/13 08:34:40;;;;;;;158.80;58.70;;;-3.30;99.90;;;;;;4942283;29;19906;-86
2022/01/13 08:37:06;;;;;;;169.48;60.95;;;-3.10;99.90;;;;;;4958418;29;20372;-86
2022/01/13 08:39:38;;;;;;;169.10;63.65;;;-3.00;99.90;;;;;;4942633;29;20126;-86
2022/01/13 08:42:05;;;;;;;163.30;63.22;;;-2.90;99.90;;;;;;4958740;29;20031;-86
2022/01/13 08:44:45;;;;;;;166.85;63.80;;;-2.90;99.90;;;;;;4959707;28;20426;-85
2022/01/13 08:47:11;;;;;;;157.38;61.78;;;-2.90;99.90;;;;;;4958254;28;20039;-86
2022/01/13 08:49:37;;;;;;;171.68;67.15;;;-2.80;99.90;;;;;;4958191;29;20040;-86
2022/01/13 08:52:04;;;;;;;187.38;69.50;;;-2.70;99.90;;;;;;4958200;29;20035;-86
2022/01/13 08:54:29;;;;;;;173.77;70.60;;;-2.60;99.90;;;;;;4958315;29;20038;-86
2022/01/13 08:56:59;;;;;;;183.35;73.57;;;-2.60;99.90;;;;;;4958334;29;20598;-86
2022/01/13 08:59:26;;;;;;;184.73;69.93;;;-2.50;99.90;;;;;;4942739;29;20139;-86
2022/01/13 09:02:01;;;;;;;155.13;64.47;;;-2.50;99.90;;;;;;4942230;29;20027;-85
2022/01/13 09:04:26;;;;;;;149.82;59.53;;;-2.40;99.90;;;;;;4957693;29;20127;-86
2022/01/13 09:06:52;;;;;;;139.30;56.28;;;-2.30;99.90;;;;;;4958186;29;20063;-86
2022/01/13 09:09:18;;;;;;;152.13;57.60;;;-2.20;99.90;;;;;;4957902;29;20039;-86
2022/01/13 09:11:44;;;;;;;141.95;55.92;;;-2.20;99.90;;;;;;4958155;29;20072;-86
2022/01/13 09:14:10;;;;;;;147.98;58.53;;;-2.10;99.90;;;;;;4957567;29;20039;-86
2022/01/13 09:16:45;;;;;;;136.68;55.80;;;-2.00;99.90;;;;;;4957655;29;20039;-85
2022/01/13 09:19:51;;;;;;;144.40;56.80;;;-1.90;99.90;;;;;;4957455;29;20039;-86
2022/01/13 09:22:18;;;;;;;138.15;56.22;;;-1.80;99.90;;;;;;4958526;29;20031;-86
2022/01/13 09:24:44;;;;;;;138.30;57.22;;;-1.70;99.90;;;;;;4941193;29;20527;-86
2022/01/13 09:27:10;;;;;;;148.85;55.67;;;-1.60;99.90;;;;;;4941622;29;20122;-86
2022/01/13 09:29:39;;;;;;;153.52;60.97;;;-1.50;99.90;;;;;;4957585;29;20067;-86
2022/01/13 09:32:05;;;;;;;139.75;59.08;;;-1.30;99.90;;;;;;4956923;29;20051;-86
2022/01/13 09:34:31;;;;;;;138.82;56.80;;;-1.20;99.90;;;;;;4940874;29;20077;-85
2022/01/13 09:36:57;;;;;;;131.68;55.58;;;-1.20;99.90;;;;;;4940838;29;20031;-86
2022/01/13 09:39:23;;;;;;;132.65;52.25;;;-1.10;99.90;;;;;;4957041;28;20070;-86
2022/01/13 09:41:51;;;;;;;136.55;53.88;;;-1.00;99.90;;;;;;4956998;29;20027;-86
2022/01/13 09:44:17;;;;;;;131.50;56.15;;;-0.90;99.90;;;;;;4940795;29;20023;-86
2022/01/13 09:46:45;;;;;;;140.95;56.42;;;-0.90;99.90;;;;;;4957128;28;20039;-86
2022/01/13 09:49:10;;;;;;;134.13;56.15;;;-0.80;99.90;;;;;;4941046;29;20093;-86
2022/01/13 09:51:38;;;;;;;127.03;54.33;;;-0.70;99.90;;;;;;4957285;29;20114;-86
2022/01/13 09:54:04;;;;;;;120.32;53.88;;;-0.60;99.90;;;;;;4941071;29;20495;-87
2022/01/13 09:56:32;;;;;;;97.88;48.78;;;-0.20;99.90;;;;;;4941521;29;20039;-88
2022/01/13 09:58:58;;;;;;;107.22;49.63;;;0.30;99.90;;;;;;4941476;29;20043;-87
2022/01/13 10:01:24;;;;;;;85.28;45.40;;;1.10;99.90;;;;;;4941237;29;20110;-88
2022/01/13 10:03:50;;;;;;;80.40;43.00;;;2.10;99.90;;;;;;4940973;29;20027;-88
2022/01/13 10:06:18;;;;;;;68.93;38.15;;;2.90;99.90;;;;;;4957236;29;20073;-87
2022/01/13 10:08:54;;;;;;;60.15;35.17;;;3.70;99.90;;;;;;4941264;29;20039;-87
2022/01/13 10:11:39;;;;;;;59.00;34.55;;;4.00;99.90;;;;;;4957326;29;20058;-86
2022/01/13 10:16:57;;;;;;;56.03;33.35;;;5.00;99.90;;;;;;4957335;29;20459;-87
2022/01/13 10:19:31;;;;;;;50.80;30.45;;;5.30;99.90;;;;;;4941401;29;20035;-85
2022/01/13 10:22:06;;;;;;;47.45;28.73;;;5.70;99.90;;;;;;4941056;29;20057;-86
2022/01/13 10:24:41;;;;;;;52.47;30.15;;;5.80;99.90;;;;;;4940590;29;20034;-86
2022/01/13 10:27:12;;;;;;;52.35;31.77;;;6.40;99.90;;;;;;4940619;29;20027;-86
2022/01/13 10:29:59;;;;;;;46.67;29.80;;;6.80;99.90;;;;;;4940778;29;20035;-86
2022/01/13 10:32:33;;;;;;;47.47;31.13;;;6.90;99.90;;;;;;4940939;29;20035;-86
2022/01/13 10:35:06;;;;;;;46.30;29.98;;;7.20;99.90;;;;;;4957806;29;20031;-87
2022/01/13 10:37:43;;;;;;;46.10;30.00;;;7.30;99.90;;;;;;4939918;29;20046;-86
2022/01/13 10:40:15;;;;;;;52.33;32.45;;;7.40;99.90;;;;;;4940407;29;20039;-86
2022/01/13 10:45:36;;;;;;;47.92;30.38;;;6.70;99.90;;;;;;4957290;29;20031;-86
2022/01/13 10:48:22;;;;;;;48.65;30.05;;;6.40;99.90;;;;;;4957091;29;20039;-87
2022/01/13 10:51:01;;;;;;;46.70;30.13;;;5.90;99.90;;;;;;4940374;29;20034;-86
2022/01/13 10:53:41;;;;;;;51.47;30.73;;;5.30;99.90;;;;;;4939941;29;20035;-85
2022/01/13 10:56:09;;;;;;;53.83;32.63;;;5.00;99.90;;;;;;4939543;29;20376;-85
2022/01/13 10:58:50;;;;;;;51.30;30.98;;;4.60;99.90;;;;;;4940092;29;20043;-85
2022/01/13 11:01:16;;;;;;;51.90;30.97;;;4.30;99.90;;;;;;4956294;29;20023;-85
2022/01/13 11:03:44;;;;;;;43.05;24.77;;;4.10;99.90;;;;;;4955427;29;20032;-84
2022/01/13 11:06:31;;;;;;;40.30;24.27;;;4.30;99.90;;;;;;4939451;29;20035;-85
2022/01/13 11:08:58;;;;;;;44.45;24.00;;;4.50;99.90;;;;;;4955293;28;20043;-85
2022/01/13 11:11:33;;;;;;;43.92;24.95;;;4.50;99.90;;;;;;4939462;29;20127;-85
2022/01/13 11:14:07;;;;;;;39.72;22.02;;;4.50;99.90;;;;;;4955254;29;20057;-85
2022/01/13 11:16:34;;;;;;;35.35;21.45;;;4.60;99.90;;;;;;4938988;29;20035;-85
2022/01/13 11:19:00;;;;;;;29.73;18.38;;;4.90;99.90;;;;;;4939031;29;20479;-85
2022/01/13 11:21:28;;;;;;;38.53;21.35;;;5.20;99.90;;;;;;4954963;29;20020;-85
2022/01/13 11:23:56;;;;;;;35.70;21.20;;;5.10;99.90;;;;;;4954846;28;20031;-85
2022/01/13 11:26:27;;;;;;;31.73;18.05;;;4.90;99.90;;;;;;4939024;29;20039;-84
2022/01/13 11:28:58;;;;;;;33.17;19.42;;;4.40;99.90;;;;;;4939010;29;20050;-85
2022/01/13 11:31:24;;;;;;;31.52;19.17;;;4.30;99.90;;;;;;4938797;29;20050;-85
2022/01/13 11:33:50;;;;;;;34.50;20.65;;;4.30;99.90;;;;;;4938387;29;20033;-85
2022/01/13 11:36:17;;;;;;;40.38;21.95;;;4.60;99.90;;;;;;4938604;29;20039;-85
2022/01/13 11:38:54;;;;;;;32.85;19.00;;;4.90;99.90;;;;;;4938697;29;20035;-85
2022/01/13 11:41:20;;;;;;;32.20;18.58;;;4.70;99.90;;;;;;4938643;29;20027;-84
2022/01/13 11:43:45;;;;;;;27.23;17.77;;;4.90;99.90;;;;;;4954149;28;20019;-85
2022/01/13 11:46:21;;;;;;;32.92;20.58;;;5.50;99.90;;;;;;4954201;28;20443;-84
2022/01/13 11:49:00;;;;;;;31.77;19.50;;;6.10;99.90;;;;;;4937550;29;20679;-84
2022/01/13 11:51:39;;;;;;;32.53;20.50;;;6.10;99.90;;;;;;4938354;29;20554;-85
2022/01/13 11:54:05;;;;;;;36.45;19.95;;;6.10;99.90;;;;;;4954454;29;20042;-85
2022/01/13 11:56:30;;;;;;;30.58;18.77;;;6.30;99.90;;;;;;4954357;29;20446;-85
2022/01/13 11:58:57;;;;;;;32.42;19.05;;;6.30;99.90;;;;;;4953949;29;20130;-85
2022/01/13 12:01:24;;;;;;;31.83;19.33;;;6.40;99.90;;;;;;4938282;29;20147;-84
2022/01/13 12:03:59;;;;;;;27.55;17.45;;;6.70;99.90;;;;;;4954318;29;20031;-85
2022/01/13 12:06:38;;;;;;;34.75;21.20;;;7.20;99.90;;;;;;4938499;29;20118;-84
2022/01/13 12:09:09;;;;;;;37.60;22.92;;;6.30;99.90;;;;;;4938325;29;20491;-84
2022/01/13 12:11:51;;;;;;;35.75;22.40;;;4.80;99.90;;;;;;4955024;29;20039;-84
2022/01/13 12:14:23;;;;;;;40.65;23.27;;;3.90;99.90;;;;;;4938561;29;20050;-85
2022/01/13 12:17:03;;;;;;;38.90;23.40;;;3.40;99.90;;;;;;4938787;29;20050;-84
2022/01/13 12:19:38;;;;;;;44.00;25.95;;;3.10;99.90;;;;;;4938357;29;20399;-84
2022/01/13 12:22:34;;;;;;;44.25;24.08;;;3.00;99.90;;;;;;4938554;29;20497;-85
2022/01/13 12:25:02;;;;;;;45.03;24.35;;;2.90;99.90;;;;;;4930729;29;20046;-85
2022/01/13 12:27:34;;;;;;;49.72;25.52;;;2.70;99.90;;;;;;4938396;29;20046;-85
2022/01/13 12:30:24;;;;;;;46.38;24.67;;;2.50;99.90;;;;;;4938636;29;20027;-85
2022/01/13 12:33:03;;;;;;;47.17;23.70;;;2.50;99.90;;;;;;4938280;29;20035;-84
2022/01/13 12:35:38;;;;;;;47.65;25.40;;;2.30;99.90;;;;;;4938479;29;20395;-85
2022/01/13 12:38:20;;;;;;;50.53;25.20;;;2.20;99.90;;;;;;4938077;29;20050;-85
2022/01/13 12:41:01;;;;;;;47.92;24.85;;;2.30;99.90;;;;;;4938599;29;20055;-84
2022/01/13 12:43:51;;;;;;;46.38;25.00;;;2.20;99.90;;;;;;4938384;29;20034;-84
2022/01/13 12:46:24;;;;;;;44.42;24.65;;;2.30;99.90;;;;;;4954690;29;20035;-84
2022/01/13 12:48:52;;;;;;;46.13;24.52;;;2.30;99.90;;;;;;4938558;29;20023;-84
2022/01/13 12:51:24;;;;;;;49.75;25.30;;;2.30;99.90;;;;;;4938498;29;20539;-84
2022/01/13 12:53:49;;;;;;;;;;;2.20;99.90;;;;;;4938739;29;20030;-84